createdAt,value
2018-11-25T00:00:13.152Z,57.50
2018-11-25T00:02:41.860Z,58.00
2018-11-25T00:05:10.645Z,57.50
2018-11-25T00:07:39.325Z,57.50
2018-11-25T00:10:08.211Z,57.70
2018-11-25T00:12:36.868Z,57.70
2018-11-25T00:15:07.377Z,57.60
2018-11-25T00:17:36.068Z,57.50
2018-11-25T00:20:07.164Z,57.50
2018-11-25T00:22:35.808Z,58.10
2018-11-25T00:25:04.765Z,57.60
2018-11-25T00:27:33.390Z,57.50
2018-11-25T00:30:02.842Z,57.40
2018-11-25T00:32:31.503Z,57.30
2018-11-25T00:35:00.168Z,57.40
2018-11-25T00:37:28.795Z,57.20
2018-11-25T00:39:57.497Z,57.20
2018-11-25T00:42:26.141Z,57.20
2018-11-25T00:44:55.611Z,57.30
2018-11-25T00:47:24.273Z,57.40
2018-11-25T00:49:52.959Z,57.20
2018-11-25T00:52:21.597Z,56.90
2018-11-25T00:54:50.613Z,57.00
2018-11-25T00:57:19.300Z,57.20
2018-11-25T00:59:48.528Z,56.90
2018-11-25T01:02:17.165Z,56.80
2018-11-25T01:04:46.620Z,56.70
2018-11-25T01:07:15.292Z,56.70
2018-11-25T01:09:44.045Z,57.20
2018-11-25T01:12:12.747Z,56.90
2018-11-25T01:14:41.388Z,57.20
2018-11-25T01:17:10.083Z,57.10
2018-11-25T01:19:38.821Z,57.00
2018-11-25T01:22:07.515Z,56.90
2018-11-25T01:24:36.165Z,56.90
2018-11-25T01:27:05.365Z,56.70
2018-11-25T01:29:34.038Z,56.60
2018-11-25T01:32:02.828Z,56.50
2018-11-25T01:34:31.951Z,56.40
2018-11-25T01:37:00.652Z,56.50
2018-11-25T01:39:29.284Z,56.60
2018-11-25T01:41:58.899Z,56.60
2018-11-25T01:44:27.611Z,56.50
2018-11-25T01:46:57.047Z,56.50
2018-11-25T01:49:26.177Z,56.50
2018-11-25T01:51:55.803Z,56.60
2018-11-25T01:54:24.455Z,56.50
2018-11-25T01:56:53.877Z,56.50
2018-11-25T01:59:23.779Z,56.50
2018-11-25T02:01:53.099Z,56.50
2018-11-25T02:04:21.780Z,56.50
2018-11-25T02:06:51.439Z,56.50
2018-11-25T02:09:21.389Z,56.40
2018-11-25T02:11:50.100Z,56.40
2018-11-25T02:14:20.504Z,56.30
2018-11-25T02:16:49.177Z,56.30
2018-11-25T02:19:20.115Z,56.40
2018-11-25T02:21:50.028Z,56.30
2018-11-25T02:24:19.307Z,56.30
2018-11-25T02:26:48.428Z,56.40
2018-11-25T02:29:17.716Z,56.30
2018-11-25T02:31:48.252Z,56.40
2018-11-25T02:34:17.545Z,56.40
2018-11-25T02:36:47.442Z,56.40
2018-11-25T02:39:17.427Z,56.40
2018-11-25T02:41:46.871Z,56.40
2018-11-25T02:44:15.548Z,56.30
2018-11-25T02:46:44.181Z,56.30
2018-11-25T02:49:13.552Z,56.30
2018-11-25T02:51:42.936Z,56.30
2018-11-25T02:54:11.588Z,56.30
2018-11-25T02:56:40.981Z,56.40
2018-11-25T02:59:10.393Z,56.60
2018-11-25T03:01:39.019Z,57.00
2018-11-25T03:04:07.704Z,57.00
2018-11-25T03:06:36.589Z,56.70
2018-11-25T03:09:06.866Z,56.50
2018-11-25T03:11:35.508Z,56.50
2018-11-25T03:14:04.205Z,56.40
2018-11-25T03:16:33.547Z,56.60
2018-11-25T03:19:02.219Z,56.50
2018-11-25T03:21:30.867Z,56.50
2018-11-25T03:23:59.504Z,56.50
2018-11-25T03:26:28.184Z,56.80
2018-11-25T03:28:56.856Z,57.10
2018-11-25T03:31:25.585Z,56.80
2018-11-25T03:33:54.260Z,56.50
2018-11-25T03:36:22.945Z,56.80
2018-11-25T03:38:51.590Z,56.90
2018-11-25T03:41:20.276Z,57.00
2018-11-25T03:43:49.763Z,56.90
2018-11-25T03:46:18.562Z,56.80
2018-11-25T03:48:47.269Z,56.50
2018-11-25T03:51:18.220Z,56.40
2018-11-25T03:53:47.541Z,56.50
2018-11-25T03:56:16.200Z,57.00
2018-11-25T03:58:44.832Z,57.30
2018-11-25T04:01:13.495Z,57.00
2018-11-25T04:03:42.129Z,56.40
2018-11-25T04:06:10.885Z,56.10
2018-11-25T04:08:39.544Z,55.80
2018-11-25T04:11:08.995Z,55.90
2018-11-25T04:13:38.199Z,56.00
2018-11-25T04:16:08.008Z,56.00
2018-11-25T04:18:36.687Z,55.90
2018-11-25T04:21:05.856Z,55.80
2018-11-25T04:23:35.169Z,55.80
2018-11-25T04:26:05.195Z,55.80
2018-11-25T04:28:34.789Z,55.80
2018-11-25T04:31:04.072Z,56.00
2018-11-25T04:33:32.732Z,56.20
2018-11-25T04:36:02.780Z,56.20
2018-11-25T04:38:32.079Z,56.50
2018-11-25T04:41:00.752Z,56.40
2018-11-25T04:43:29.495Z,56.60
2018-11-25T04:45:59.195Z,56.10
2018-11-25T04:48:27.912Z,56.30
2018-11-25T04:50:57.321Z,56.90
2018-11-25T04:53:28.017Z,56.70
2018-11-25T04:55:57.528Z,56.80
2018-11-25T04:58:27.447Z,56.80
2018-11-25T05:00:57.360Z,57.40
2018-11-25T05:03:27.604Z,56.90
2018-11-25T05:05:57.984Z,56.70
2018-11-25T05:08:26.673Z,56.20
2018-11-25T05:10:55.421Z,55.90
2018-11-25T05:13:25.415Z,55.70
2018-11-25T05:15:54.646Z,56.40
2018-11-25T05:18:24.072Z,56.80
2018-11-25T05:20:53.485Z,56.30
2018-11-25T05:23:22.208Z,57.40
2018-11-25T05:25:51.464Z,57.40
2018-11-25T05:28:20.212Z,57.30
2018-11-25T05:30:49.456Z,57.00
2018-11-25T05:33:18.148Z,56.50
2018-11-25T05:35:49.058Z,57.30
2018-11-25T05:38:17.748Z,56.70
2018-11-25T05:40:47.662Z,56.60
2018-11-25T05:43:16.367Z,56.30
2018-11-25T05:45:44.992Z,55.90
2018-11-25T05:48:14.245Z,56.00
2018-11-25T05:50:42.921Z,56.10
2018-11-25T05:53:12.375Z,56.10
2018-11-25T05:55:41.052Z,56.20
2018-11-25T05:58:10.318Z,56.60
2018-11-25T06:00:38.994Z,56.20
2018-11-25T06:03:07.673Z,55.70
2018-11-25T06:05:37.039Z,55.40
2018-11-25T06:08:06.425Z,55.30
2018-11-25T06:10:35.615Z,55.30
2018-11-25T06:13:04.287Z,55.30
2018-11-25T06:15:33.130Z,55.60
2018-11-25T06:18:01.810Z,55.90
2018-11-25T06:20:30.529Z,55.80
2018-11-25T06:22:59.676Z,55.80
2018-11-25T06:25:29.067Z,56.00
2018-11-25T06:27:58.854Z,55.80
2018-11-25T06:30:29.168Z,55.90
2018-11-25T06:32:58.537Z,56.00
2018-11-25T06:35:27.221Z,55.90
2018-11-25T06:37:56.043Z,56.10
2018-11-25T06:40:25.384Z,56.00
2018-11-25T06:42:54.055Z,56.20
2018-11-25T06:45:25.204Z,57.10
2018-11-25T06:47:55.799Z,57.50
2018-11-25T06:50:25.029Z,57.40
2018-11-25T06:52:53.732Z,56.50
2018-11-25T06:55:23.344Z,55.70
2018-11-25T06:57:51.988Z,55.50
2018-11-25T07:00:23.408Z,55.40
2018-11-25T07:02:52.079Z,55.60
2018-11-25T07:05:20.787Z,55.90
2018-11-25T07:07:50.464Z,55.90
2018-11-25T07:10:21.104Z,55.40
2018-11-25T07:12:50.936Z,55.70
2018-11-25T07:15:19.751Z,56.10
2018-11-25T07:17:48.459Z,55.80
2018-11-25T07:20:18.768Z,55.60
2018-11-25T07:22:47.539Z,55.70
2018-11-25T07:25:18.331Z,55.70
2018-11-25T07:27:47.629Z,56.00
2018-11-25T07:30:23.526Z,56.10
2018-11-25T07:32:52.212Z,55.70
2018-11-25T07:35:21.832Z,55.60
2018-11-25T07:37:50.552Z,56.00
2018-11-25T07:40:20.950Z,56.30
2018-11-25T07:42:50.487Z,56.30
2018-11-25T07:45:30.130Z,56.00
2018-11-25T07:47:51.941Z,55.30
2018-11-25T07:50:20.645Z,55.10
2018-11-25T07:52:50.580Z,57.10
2018-11-25T07:55:26.108Z,56.20
2018-11-25T07:57:55.716Z,56.40
2018-11-25T08:00:25.333Z,56.30
2018-11-25T08:02:54.589Z,55.70
2018-11-25T08:05:25.540Z,55.20
2018-11-25T08:07:55.197Z,55.10
2018-11-25T08:10:24.808Z,55.50
2018-11-25T08:12:54.084Z,55.10
2018-11-25T08:15:22.793Z,55.10
2018-11-25T08:17:52.041Z,55.20
2018-11-25T08:20:21.680Z,54.60
2018-11-25T08:22:50.880Z,55.40
2018-11-25T08:25:20.471Z,56.00
2018-11-25T08:27:49.160Z,56.60
2018-11-25T08:30:21.624Z,57.30
2018-11-25T08:32:51.321Z,56.70
2018-11-25T08:35:20.699Z,56.50
2018-11-25T08:37:49.678Z,55.90
2018-11-25T08:40:22.330Z,56.50
2018-11-25T08:42:51.320Z,56.90
2018-11-25T08:45:20.004Z,56.50
2018-11-25T08:47:48.883Z,53.70
2018-11-25T08:50:18.639Z,57.00
2018-11-25T08:52:50.689Z,56.90
2018-11-25T08:55:21.264Z,56.40
2018-11-25T08:57:49.996Z,55.80
2018-11-25T09:00:19.852Z,55.30
2018-11-25T09:02:49.468Z,54.70
2018-11-25T09:05:18.211Z,58.90
2018-11-25T09:07:46.955Z,54.20
2018-11-25T09:10:19.779Z,60.50
2018-11-25T09:12:56.092Z,58.10
2018-11-25T09:15:25.503Z,56.60
2018-11-25T09:17:54.837Z,57.70
2018-11-25T09:20:24.286Z,58.50
2018-11-25T09:22:54.249Z,57.20
2018-11-25T09:25:27.213Z,56.20
2018-11-25T09:27:56.632Z,57.40
2018-11-25T09:30:27.383Z,57.70
2018-11-25T09:32:56.922Z,57.10
2018-11-25T09:35:26.068Z,56.60
2018-11-25T09:37:54.724Z,55.60
2018-11-25T09:40:25.584Z,56.50
2018-11-25T09:42:54.972Z,55.30
2018-11-25T09:45:24.243Z,57.90
2018-11-25T09:47:52.982Z,56.20
2018-11-25T09:50:23.163Z,56.70
2018-11-25T09:52:52.975Z,57.50
2018-11-25T09:55:25.184Z,56.90
2018-11-25T09:57:55.976Z,57.00
2018-11-25T10:00:28.776Z,56.70
2018-11-25T10:02:57.474Z,57.30
2018-11-25T10:05:27.573Z,56.60
2018-11-25T10:07:56.997Z,56.50
2018-11-25T10:10:26.382Z,57.80
2018-11-25T10:12:55.073Z,57.00
2018-11-25T10:15:28.583Z,58.00
2018-11-25T10:17:59.932Z,55.30
2018-11-25T10:20:28.276Z,59.90
2018-11-25T10:22:57.607Z,57.90
2018-11-25T10:25:27.161Z,58.00
2018-11-25T10:27:56.461Z,56.30
2018-11-25T10:30:26.348Z,57.70
2018-11-25T10:32:56.316Z,57.80
2018-11-25T10:35:25.683Z,56.20
2018-11-25T10:37:56.040Z,55.90
2018-11-25T10:40:25.500Z,56.00
2018-11-25T10:42:54.252Z,56.60
2018-11-25T10:45:24.159Z,57.00
2018-11-25T10:47:53.043Z,56.20
2018-11-25T10:50:22.155Z,55.40
2018-11-25T10:52:50.988Z,54.90
2018-11-25T10:55:20.444Z,54.70
2018-11-25T10:57:52.931Z,56.40
2018-11-25T11:00:32.299Z,57.40
2018-11-25T11:03:06.257Z,55.00
2018-11-25T11:05:40.374Z,60.70
2018-11-25T11:08:09.557Z,52.70
2018-11-25T11:10:38.248Z,61.30
2018-11-25T11:13:07.957Z,58.30
2018-11-25T11:15:36.671Z,61.90
2018-11-25T11:18:05.670Z,58.20
2018-11-25T11:20:34.376Z,61.30
2018-11-25T11:23:03.060Z,56.80
2018-11-25T11:25:31.732Z,56.70
2018-11-25T11:28:00.454Z,59.30
2018-11-25T11:30:29.716Z,58.10
2018-11-25T11:32:58.655Z,57.70
2018-11-25T11:35:27.288Z,58.10
2018-11-25T11:37:56.008Z,59.50
2018-11-25T11:40:24.683Z,58.70
2018-11-25T11:42:53.391Z,57.30
2018-11-25T11:45:22.078Z,55.40
2018-11-25T11:47:50.988Z,57.30
2018-11-25T11:50:21.711Z,57.20
2018-11-25T11:52:50.408Z,57.40
2018-11-25T11:55:19.340Z,61.40
2018-11-25T11:57:48.953Z,57.50
2018-11-25T12:00:23.118Z,57.60
2018-11-25T12:02:52.618Z,58.00
2018-11-25T12:05:21.312Z,57.00
2018-11-25T12:07:50.103Z,59.40
2018-11-25T12:10:19.708Z,57.60
2018-11-25T12:12:48.976Z,59.00
2018-11-25T12:15:23.318Z,58.20
2018-11-25T12:17:50.819Z,58.10
2018-11-25T12:20:21.454Z,58.40
2018-11-25T12:22:50.059Z,62.80
2018-11-25T12:25:18.870Z,59.30
2018-11-25T12:27:48.112Z,61.40
2018-11-25T12:30:17.948Z,58.80
2018-11-25T12:32:48.562Z,56.60
2018-11-25T12:35:20.356Z,56.40
2018-11-25T12:37:49.949Z,57.60
2018-11-25T12:40:20.847Z,58.50
2018-11-25T12:42:51.066Z,60.00
2018-11-25T12:45:21.495Z,58.80
2018-11-25T12:47:51.440Z,56.30
2018-11-25T12:50:23.171Z,55.80
2018-11-25T12:52:51.932Z,56.60
2018-11-25T12:55:21.903Z,56.90
2018-11-25T12:57:50.583Z,57.10
2018-11-25T13:00:35.902Z,59.00
2018-11-25T13:03:04.619Z,56.70
2018-11-25T13:05:34.416Z,58.60
2018-11-25T13:08:04.369Z,55.10
2018-11-25T13:10:35.451Z,62.90
2018-11-25T13:13:05.281Z,56.90
2018-11-25T13:15:34.881Z,57.60
2018-11-25T13:18:04.120Z,53.60
2018-11-25T13:20:33.639Z,52.40
2018-11-25T13:23:02.994Z,58.50
2018-11-25T13:25:33.085Z,59.70
2018-11-25T13:28:03.033Z,61.70
2018-11-25T13:30:33.151Z,59.60
2018-11-25T13:33:03.561Z,66.90
2018-11-25T13:35:34.857Z,62.40
2018-11-25T13:38:03.691Z,66.50
2018-11-25T13:40:32.439Z,64.50
2018-11-25T13:43:02.750Z,66.30
2018-11-25T13:45:32.048Z,62.90
2018-11-25T13:48:02.235Z,63.00
2018-11-25T13:50:31.737Z,62.80
2018-11-25T13:53:01.097Z,57.80
2018-11-25T13:55:29.910Z,65.50
2018-11-25T13:57:59.845Z,60.70
2018-11-25T14:00:41.731Z,57.60
2018-11-25T14:03:13.789Z,62.40
2018-11-25T14:05:53.106Z,58.10
2018-11-25T14:08:16.086Z,58.40
2018-11-25T14:10:46.594Z,58.80
2018-11-25T14:13:15.300Z,58.60
2018-11-25T14:15:44.923Z,66.80
2018-11-25T14:18:14.629Z,68.20
2018-11-25T14:20:44.444Z,63.40
2018-11-25T14:23:13.882Z,64.10
2018-11-25T14:25:43.608Z,66.60
2018-11-25T14:28:13.950Z,64.30
2018-11-25T14:30:43.391Z,59.20
2018-11-25T14:33:13.706Z,63.10
2018-11-25T14:35:43.601Z,61.10
2018-11-25T14:38:13.380Z,69.10
2018-11-25T14:40:42.104Z,68.70
2018-11-25T14:43:12.272Z,64.60
2018-11-25T14:45:42.445Z,64.50
2018-11-25T14:48:11.676Z,60.90
2018-11-25T14:50:40.402Z,69.60
2018-11-25T14:53:11.095Z,64.30
2018-11-25T14:55:41.459Z,57.40
2018-11-25T14:58:11.152Z,66.90
2018-11-25T15:00:41.123Z,69.00
2018-11-25T15:03:11.004Z,64.60
2018-11-25T15:05:43.041Z,63.00
2018-11-25T15:08:16.834Z,66.40
2018-11-25T15:10:46.804Z,63.50
2018-11-25T15:13:16.796Z,60.60
2018-11-25T15:15:46.796Z,64.20
2018-11-25T15:18:16.159Z,65.20
2018-11-25T15:20:45.440Z,58.80
2018-11-25T15:23:15.286Z,66.40
2018-11-25T15:25:47.287Z,67.30
2018-11-25T15:28:17.917Z,62.40
2018-11-25T15:30:46.677Z,62.30
2018-11-25T15:33:16.142Z,58.70
2018-11-25T15:35:45.352Z,57.50
2018-11-25T15:38:14.073Z,55.20
2018-11-25T15:40:43.949Z,60.60
2018-11-25T15:43:12.948Z,55.50
2018-11-25T15:45:41.901Z,62.00
2018-11-25T15:48:14.324Z,66.10
2018-11-25T15:50:42.994Z,67.40
2018-11-25T15:53:12.256Z,58.30
2018-11-25T15:55:42.654Z,58.40
2018-11-25T15:58:12.079Z,56.90
2018-11-25T16:00:41.807Z,55.40
2018-11-25T16:03:11.370Z,57.70
2018-11-25T16:05:42.828Z,60.40
2018-11-25T16:08:11.563Z,58.50
2018-11-25T16:10:41.264Z,61.60
2018-11-25T16:13:11.332Z,59.40
2018-11-25T16:15:40.715Z,57.90
2018-11-25T16:18:10.679Z,57.10
2018-11-25T16:20:39.360Z,62.30
2018-11-25T16:23:09.575Z,59.10
2018-11-25T16:25:59.468Z,55.70
2018-11-25T16:28:34.748Z,58.60
2018-11-25T16:31:04.221Z,57.10
2018-11-25T16:33:32.959Z,61.10
2018-11-25T16:36:02.646Z,58.40
2018-11-25T16:38:31.331Z,58.10
2018-11-25T16:41:00.086Z,54.90
2018-11-25T16:43:28.787Z,57.10
2018-11-25T16:45:58.701Z,61.80
2018-11-25T16:48:28.810Z,61.20
2018-11-25T16:50:58.625Z,58.10
2018-11-25T16:53:28.495Z,58.90
2018-11-25T16:55:59.011Z,58.00
2018-11-25T16:58:28.573Z,55.50
2018-11-25T17:00:57.807Z,60.10
2018-11-25T17:03:28.920Z,57.60
2018-11-25T17:05:58.353Z,59.70
2018-11-25T17:08:36.188Z,58.70
2018-11-25T17:11:06.034Z,59.20
2018-11-25T17:13:35.386Z,54.30
2018-11-25T17:16:04.149Z,56.50
2018-11-25T17:18:33.540Z,55.20
2018-11-25T17:21:04.284Z,59.40
2018-11-25T17:23:34.299Z,57.60
2018-11-25T17:26:05.093Z,58.60
2018-11-25T17:28:33.828Z,57.10
2018-11-25T17:31:03.072Z,59.00
2018-11-25T17:33:31.772Z,67.10
2018-11-25T17:36:00.932Z,62.60
2018-11-25T17:38:30.815Z,60.40
2018-11-25T17:41:00.460Z,61.40
2018-11-25T17:43:29.252Z,60.10
2018-11-25T17:45:59.728Z,62.20
2018-11-25T17:48:28.425Z,60.40
2018-11-25T17:50:57.119Z,59.10
2018-11-25T17:53:25.854Z,60.30
2018-11-25T17:55:55.008Z,60.70
2018-11-25T17:58:23.750Z,63.10
2018-11-25T18:01:08.644Z,55.00
2018-11-25T18:03:38.246Z,62.20
2018-11-25T18:06:07.288Z,63.20
2018-11-25T18:08:36.051Z,60.60
2018-11-25T18:11:05.053Z,57.20
2018-11-25T18:13:35.993Z,59.50
2018-11-25T18:16:06.160Z,59.60
2018-11-25T18:18:52.112Z,56.20
2018-11-25T18:21:23.660Z,58.30
2018-11-25T18:23:52.340Z,62.10
2018-11-25T18:26:21.024Z,64.60
2018-11-25T18:28:57.248Z,62.80
2018-11-25T18:31:25.943Z,66.00
2018-11-25T18:33:54.641Z,64.20
2018-11-25T18:36:23.326Z,68.70
2018-11-25T18:38:52.595Z,65.90
2018-11-25T18:41:22.030Z,64.10
2018-11-25T18:43:50.696Z,62.90
2018-11-25T18:46:19.570Z,63.90
2018-11-25T18:48:50.087Z,61.50
2018-11-25T18:51:19.896Z,64.10
2018-11-25T18:53:48.686Z,66.80
2018-11-25T18:56:18.065Z,65.80
2018-11-25T18:58:46.779Z,67.80
2018-11-25T19:01:23.476Z,65.10
2018-11-25T19:03:52.320Z,69.40
2018-11-25T19:06:23.258Z,70.20
2018-11-25T19:08:53.359Z,69.60
2018-11-25T19:11:22.831Z,69.00
2018-11-25T19:13:51.495Z,69.60
2018-11-25T19:16:20.984Z,72.50
2018-11-25T19:18:49.881Z,77.30
2018-11-25T19:21:19.336Z,74.90
2018-11-25T19:23:52.103Z,75.50
2018-11-25T19:26:20.815Z,70.50
2018-11-25T19:28:50.854Z,71.20
2018-11-25T19:31:19.572Z,72.80
2018-11-25T19:33:48.273Z,73.10
2018-11-25T19:36:17.084Z,66.40
2018-11-25T19:38:45.746Z,72.10
2018-11-25T19:41:14.477Z,70.20
2018-11-25T19:43:43.303Z,70.70
2018-11-25T19:46:12.111Z,71.30
2018-11-25T19:48:41.489Z,70.80
2018-11-25T19:51:17.286Z,70.00
2018-11-25T19:53:39.801Z,66.70
2018-11-25T19:56:08.543Z,67.60
2018-11-25T19:58:37.332Z,69.00
2018-11-25T20:01:07.234Z,73.60
2018-11-25T20:03:36.388Z,68.80
2018-11-25T20:06:05.376Z,73.50
2018-11-25T20:08:34.677Z,76.90
2018-11-25T20:11:03.936Z,76.20
2018-11-25T20:13:35.093Z,72.90
2018-11-25T20:16:09.171Z,71.60
2018-11-25T20:18:39.280Z,69.80
2018-11-25T20:21:13.407Z,71.60
2018-11-25T20:23:42.908Z,70.50
2018-11-25T20:26:11.608Z,71.10
2018-11-25T20:28:40.959Z,68.90
2018-11-25T20:31:09.706Z,70.70
2018-11-25T20:33:44.284Z,72.20
2018-11-25T20:36:13.611Z,71.90
2018-11-25T20:38:47.555Z,66.10
2018-11-25T20:41:18.164Z,71.20
2018-11-25T20:43:46.871Z,71.90
2018-11-25T20:46:21.476Z,68.80
2018-11-25T20:48:50.155Z,68.70
2018-11-25T20:51:18.974Z,68.30
2018-11-25T20:53:53.410Z,67.40
2018-11-25T20:56:22.105Z,73.30
2018-11-25T20:58:50.780Z,71.00
2018-11-25T21:01:19.701Z,69.80
2018-11-25T21:03:49.110Z,73.40
2018-11-25T21:06:17.945Z,75.00
2018-11-25T21:08:47.112Z,72.30
2018-11-25T21:11:16.404Z,69.60
2018-11-25T21:13:45.068Z,69.80
2018-11-25T21:16:13.980Z,68.10
2018-11-25T21:18:43.375Z,71.70
2018-11-25T21:21:12.088Z,70.20
2018-11-25T21:23:40.754Z,70.70
2018-11-25T21:26:09.464Z,68.10
2018-11-25T21:28:39.190Z,67.50
2018-11-25T21:31:08.968Z,64.20
2018-11-25T21:33:38.969Z,66.40
2018-11-25T21:36:07.731Z,66.30
2018-11-25T21:38:36.491Z,65.80
2018-11-25T21:41:05.466Z,68.70
2018-11-25T21:43:34.882Z,70.90
2018-11-25T21:46:04.450Z,70.90
2018-11-25T21:48:35.158Z,71.50
2018-11-25T21:51:03.886Z,68.20
2018-11-25T21:53:32.796Z,65.10
2018-11-25T21:56:02.021Z,68.20
2018-11-25T21:58:30.765Z,70.30
2018-11-25T22:00:59.997Z,69.50
2018-11-25T22:03:28.700Z,69.40
2018-11-25T22:05:57.380Z,72.60
2018-11-25T22:08:26.867Z,72.60
2018-11-25T22:10:55.519Z,75.20
2018-11-25T22:13:24.219Z,77.60
2018-11-25T22:15:52.868Z,72.20
2018-11-25T22:18:21.569Z,70.10
2018-11-25T22:20:50.749Z,71.40
2018-11-25T22:23:19.559Z,71.70
2018-11-25T22:25:48.223Z,66.50
2018-11-25T22:28:16.895Z,69.30
2018-11-25T22:30:47.029Z,68.30
2018-11-25T22:33:15.731Z,67.60
2018-11-25T22:35:44.404Z,70.10
2018-11-25T22:38:13.117Z,69.80
2018-11-25T22:40:41.796Z,70.00
2018-11-25T22:43:10.601Z,68.40
2018-11-25T22:45:40.231Z,70.60
2018-11-25T22:48:09.795Z,75.40
2018-11-25T22:50:38.480Z,75.60
2018-11-25T22:53:07.647Z,73.20
2018-11-25T22:55:36.386Z,68.50
2018-11-25T22:58:06.058Z,71.70
2018-11-25T23:00:38.132Z,75.70
2018-11-25T23:03:07.546Z,71.90
2018-11-25T23:05:48.108Z,72.00
2018-11-25T23:08:18.182Z,68.30
2018-11-25T23:10:47.504Z,68.20
2018-11-25T23:13:16.847Z,69.20
2018-11-25T23:15:46.198Z,68.60
2018-11-25T23:18:15.484Z,67.40
2018-11-25T23:20:45.386Z,71.20
2018-11-25T23:23:14.609Z,71.50
2018-11-25T23:25:44.453Z,76.20
2018-11-25T23:28:14.292Z,72.40
2018-11-25T23:30:43.040Z,75.60
2018-11-25T23:33:12.441Z,75.90
2018-11-25T23:35:41.156Z,74.70
2018-11-25T23:38:10.468Z,75.00
2018-11-25T23:40:40.882Z,72.80
2018-11-25T23:43:09.636Z,72.60
2018-11-25T23:45:38.992Z,71.20
2018-11-25T23:48:08.769Z,70.30
2018-11-25T23:50:37.472Z,77.40
2018-11-25T23:53:07.372Z,76.80
2018-11-25T23:55:37.854Z,74.30
2018-11-25T23:58:07.296Z,72.10
